Notice: Undefined index: language in /home/u294900127/public_html/vam/index.php on line 31
Aeroboteco

 INFORMAÇÕES METEOROLÓGICAS
METAR FOR SBSR
ADDS - METARS form results

(0026 UTC 16 July 2018)
Data provider http://aviationweather.gov/adds/metars/
 
METAR text: SBSR 160000Z 12004KT CAVOK 26/06 Q1019
Conditions at: SBSR (SAO JOSE PRETO , BR) observed 0000 UTC 16 July 2018
Temperature: 26.0°C (79°F)
Dewpoint: 6.0°C (43°F) [RH = 28%]
Pressure (altimeter): 30.09 inches Hg (1019.0 mb)
Winds: from the ESE (120 degrees) at 5 MPH (4 knots; 2.1 m/s)
Visibility: 6 or more miles (10+ km)
Ceiling: ceiling and visibility are OK
Clouds: unknown
Weather: no significant weather observed at this time

 MAPA DO AEROPORTO

 INFORMAÇÕES DA PISTA
Pista 7 Tamanho da pista 5381 ft Largura da pista 115 ft
Elevação da pista 0 ft Ranhura da pista 0 ft Proa da pista 0
Pista 25 Tamanho da pista 5381 ft Largura da pista 115 ft
Elevação da pista 0 ft Ranhura da pista 0 ft Proa da pista 0

 FREQUÊNCIAS DO AEROPORTO
Tipo AFIS Nome RDO Frequência 130.85 MHZ

 AUXÍLIOS DE NAVEGAÇÃO PRÓXIMOS AO AEROPORTO
Tipo NDB Nome Rio Preto Frequência 420 KHZ



Powered by Virtual Airlines Manager [v2.6.2]